Portada
METAR-TAF:

METAR-TAF

Aeroports :

Maracaibo, Veneçuela

latitud: 10-34N, longitud: 071-44W, altitud: 66 m

Observació

L'informe es va fer fa 42 minuts, a les 06:02 UTC
Vent 2 kt del Nord-Oest
Temperatura 27°C
Humitat 89%
Pressió 1010 hPa

METAR: SVMC 180602Z AUTO 31002KT NCD 27/25 Q1010

Hora: 02:44 (06:44 UTC)

Pronòstic

L'informe es va fer fa 2 hores i 44 minuts, a les 04:00 UTC
Pronòstic vàlid del 18 a les 06 UTC al 19 a les 06 UTC
Vent 5 kt del Sud-Est
Visibilitat 10 km o més
Núvols disperses a una alçada de 1600 ft
Evolucionant progressivament
l' 18 a les 06 UTC al 18 a les 10 UTC
Vent 5 kt del Sud/Sud-Est
Visibilitat 10 km o més
Núvols disperses a una alçada de 1600 ft

TAF: SVMC 180400Z 1806/1906 14005KT 9999 SCT016 TX33/1819Z TN23/1807Z BECMG 1806/1810 16005KT 9999 SCT016

Observacions i pronòstics meteorològics de més de 4000 aeroports (METAR i TAF).

Les estacions disponibles són els punts grocs i vermells al mapa.

Posi el ratolí al punt desitjat per veure el nom de l'estació.

Feu clic per veure les observacions i els pronòstics meteorològics.

Per canviar el mapa: feu clic els botons verds amb una creu de color negre per apropar; al botó verd amb un guió per allunyar la imatge; o en les fletxes verdes per a mapes adjacents.


METAR-TAF: